sensor_id;sensor_type;location;lat;lon;timestamp;P1;durP1;ratioP1;P2;durP2;ratioP2
77876;SDS011;67251;50.844;7.978;2023-08-12T00:00:15;6.70;;;4.30;;
77876;SDS011;67251;50.844;7.978;2023-08-12T00:02:41;8.15;;;4.80;;
77876;SDS011;67251;50.844;7.978;2023-08-12T00:05:07;9.70;;;4.70;;
77876;SDS011;67251;50.844;7.978;2023-08-12T00:07:33;9.07;;;4.55;;
77876;SDS011;67251;50.844;7.978;2023-08-12T00:10:02;11.15;;;4.70;;
77876;SDS011;67251;50.844;7.978;2023-08-12T00:12:30;9.60;;;4.95;;
77876;SDS011;67251;50.844;7.978;2023-08-12T00:14:56;8.25;;;4.78;;
77876;SDS011;67251;50.844;7.978;2023-08-12T00:17:22;7.50;;;4.40;;
77876;SDS011;67251;50.844;7.978;2023-08-12T00:19:47;6.82;;;4.30;;
77876;SDS011;67251;50.844;7.978;2023-08-12T00:22:13;8.30;;;3.92;;
77876;SDS011;67251;50.844;7.978;2023-08-12T00:24:38;9.13;;;4.13;;
77876;SDS011;67251;50.844;7.978;2023-08-12T00:27:05;7.03;;;3.80;;
77876;SDS011;67251;50.844;7.978;2023-08-12T00:29:31;6.63;;;3.42;;
77876;SDS011;67251;50.844;7.978;2023-08-12T00:31:56;8.57;;;3.97;;
77876;SDS011;67251;50.844;7.978;2023-08-12T00:34:22;8.88;;;4.03;;
77876;SDS011;67251;50.844;7.978;2023-08-12T00:36:47;8.77;;;4.20;;
77876;SDS011;67251;50.844;7.978;2023-08-12T00:39:13;7.32;;;3.85;;
77876;SDS011;67251;50.844;7.978;2023-08-12T00:41:39;7.93;;;3.90;;
77876;SDS011;67251;50.844;7.978;2023-08-12T00:44:04;9.90;;;4.03;;
77876;SDS011;67251;50.844;7.978;2023-08-12T00:46:29;7.88;;;4.63;;
77876;SDS011;67251;50.844;7.978;2023-08-12T00:48:55;8.35;;;4.38;;
77876;SDS011;67251;50.844;7.978;2023-08-12T00:51:21;6.28;;;3.83;;
77876;SDS011;67251;50.844;7.978;2023-08-12T00:53:46;6.97;;;3.88;;
77876;SDS011;67251;50.844;7.978;2023-08-12T00:56:13;8.43;;;4.13;;
77876;SDS011;67251;50.844;7.978;2023-08-12T00:58:38;7.93;;;4.05;;
77876;SDS011;67251;50.844;7.978;2023-08-12T01:01:05;7.55;;;4.22;;
77876;SDS011;67251;50.844;7.978;2023-08-12T01:03:31;7.97;;;5.30;;
77876;SDS011;67251;50.844;7.978;2023-08-12T01:05:56;9.77;;;4.28;;
77876;SDS011;67251;50.844;7.978;2023-08-12T01:08:22;7.30;;;4.10;;
77876;SDS011;67251;50.844;7.978;2023-08-12T01:10:55;9.68;;;4.28;;
77876;SDS011;67251;50.844;7.978;2023-08-12T01:13:32;7.70;;;4.72;;
77876;SDS011;67251;50.844;7.978;2023-08-12T01:16:05;7.78;;;4.45;;
77876;SDS011;67251;50.844;7.978;2023-08-12T01:18:33;12.77;;;5.45;;
77876;SDS011;67251;50.844;7.978;2023-08-12T01:20:59;8.38;;;4.38;;
77876;SDS011;67251;50.844;7.978;2023-08-12T01:23:28;8.32;;;4.20;;
77876;SDS011;67251;50.844;7.978;2023-08-12T01:25:54;9.48;;;5.03;;
77876;SDS011;67251;50.844;7.978;2023-08-12T01:28:19;8.23;;;4.22;;
77876;SDS011;67251;50.844;7.978;2023-08-12T01:30:57;8.55;;;4.70;;
77876;SDS011;67251;50.844;7.978;2023-08-12T01:33:54;9.20;;;5.00;;
77876;SDS011;67251;50.844;7.978;2023-08-12T01:36:23;8.27;;;4.78;;
77876;SDS011;67251;50.844;7.978;2023-08-12T01:38:51;8.05;;;4.97;;
77876;SDS011;67251;50.844;7.978;2023-08-12T01:41:19;8.18;;;4.10;;
77876;SDS011;67251;50.844;7.978;2023-08-12T01:43:48;9.20;;;4.88;;
77876;SDS011;67251;50.844;7.978;2023-08-12T01:48:49;10.13;;;5.65;;
77876;SDS011;67251;50.844;7.978;2023-08-12T01:51:14;11.35;;;5.25;;
77876;SDS011;67251;50.844;7.978;2023-08-12T01:53:40;10.02;;;5.53;;
77876;SDS011;67251;50.844;7.978;2023-08-12T01:56:05;7.95;;;4.60;;
77876;SDS011;67251;50.844;7.978;2023-08-12T01:58:30;10.68;;;5.22;;
77876;SDS011;67251;50.844;7.978;2023-08-12T02:00:56;10.98;;;5.43;;
77876;SDS011;67251;50.844;7.978;2023-08-12T02:03:21;9.65;;;5.68;;
77876;SDS011;67251;50.844;7.978;2023-08-12T02:05:46;9.88;;;5.28;;
77876;SDS011;67251;50.844;7.978;2023-08-12T02:08:12;11.60;;;5.60;;
77876;SDS011;67251;50.844;7.978;2023-08-12T02:10:38;9.73;;;5.55;;
77876;SDS011;67251;50.844;7.978;2023-08-12T02:13:03;10.38;;;6.10;;
77876;SDS011;67251;50.844;7.978;2023-08-12T02:15:29;13.18;;;6.00;;
77876;SDS011;67251;50.844;7.978;2023-08-12T02:17:54;10.13;;;5.90;;
77876;SDS011;67251;50.844;7.978;2023-08-12T02:20:19;12.15;;;5.88;;
77876;SDS011;67251;50.844;7.978;2023-08-12T02:22:45;9.73;;;6.10;;
77876;SDS011;67251;50.844;7.978;2023-08-12T02:25:10;11.75;;;6.50;;
77876;SDS011;67251;50.844;7.978;2023-08-12T02:27:35;11.93;;;6.20;;
77876;SDS011;67251;50.844;7.978;2023-08-12T02:30:01;11.68;;;6.38;;
77876;SDS011;67251;50.844;7.978;2023-08-12T02:32:27;11.00;;;6.40;;
77876;SDS011;67251;50.844;7.978;2023-08-12T02:34:52;10.73;;;6.85;;
77876;SDS011;67251;50.844;7.978;2023-08-12T02:37:18;14.48;;;6.80;;
77876;SDS011;67251;50.844;7.978;2023-08-12T02:39:43;12.73;;;6.60;;
77876;SDS011;67251;50.844;7.978;2023-08-12T02:42:08;13.73;;;6.97;;
77876;SDS011;67251;50.844;7.978;2023-08-12T02:44:34;15.30;;;7.70;;
77876;SDS011;67251;50.844;7.978;2023-08-12T02:46:59;11.73;;;6.80;;
77876;SDS011;67251;50.844;7.978;2023-08-12T02:49:25;14.15;;;7.22;;
77876;SDS011;67251;50.844;7.978;2023-08-12T02:51:50;13.20;;;6.85;;
77876;SDS011;67251;50.844;7.978;2023-08-12T02:54:15;13.75;;;7.78;;
77876;SDS011;67251;50.844;7.978;2023-08-12T02:56:41;13.80;;;7.47;;
77876;SDS011;67251;50.844;7.978;2023-08-12T02:59:06;13.98;;;7.90;;
77876;SDS011;67251;50.844;7.978;2023-08-12T03:01:32;17.20;;;9.02;;
77876;SDS011;67251;50.844;7.978;2023-08-12T03:03:57;16.98;;;9.20;;
77876;SDS011;67251;50.844;7.978;2023-08-12T03:06:22;17.33;;;8.90;;
77876;SDS011;67251;50.844;7.978;2023-08-12T03:08:48;18.30;;;9.35;;
77876;SDS011;67251;50.844;7.978;2023-08-12T03:11:13;16.85;;;9.07;;
77876;SDS011;67251;50.844;7.978;2023-08-12T03:13:39;18.70;;;8.90;;
77876;SDS011;67251;50.844;7.978;2023-08-12T03:16:04;17.75;;;8.98;;
77876;SDS011;67251;50.844;7.978;2023-08-12T03:18:29;19.00;;;9.23;;
77876;SDS011;67251;50.844;7.978;2023-08-12T03:20:55;14.68;;;8.55;;
77876;SDS011;67251;50.844;7.978;2023-08-12T03:23:20;16.98;;;9.25;;
77876;SDS011;67251;50.844;7.978;2023-08-12T03:25:49;15.88;;;9.20;;
77876;SDS011;67251;50.844;7.978;2023-08-12T03:28:14;16.13;;;8.73;;
77876;SDS011;67251;50.844;7.978;2023-08-12T03:30:39;15.20;;;8.52;;
77876;SDS011;67251;50.844;7.978;2023-08-12T03:33:05;14.68;;;8.60;;
77876;SDS011;67251;50.844;7.978;2023-08-12T03:35:30;16.38;;;9.52;;
77876;SDS011;67251;50.844;7.978;2023-08-12T03:37:56;19.70;;;10.38;;
77876;SDS011;67251;50.844;7.978;2023-08-12T03:40:21;16.75;;;9.65;;
77876;SDS011;67251;50.844;7.978;2023-08-12T03:42:47;16.55;;;9.70;;
77876;SDS011;67251;50.844;7.978;2023-08-12T03:45:12;19.35;;;10.40;;
77876;SDS011;67251;50.844;7.978;2023-08-12T03:47:37;18.55;;;9.38;;
77876;SDS011;67251;50.844;7.978;2023-08-12T03:50:03;18.88;;;9.05;;
77876;SDS011;67251;50.844;7.978;2023-08-12T03:52:29;16.42;;;8.95;;
77876;SDS011;67251;50.844;7.978;2023-08-12T03:54:54;15.50;;;9.18;;
77876;SDS011;67251;50.844;7.978;2023-08-12T03:57:19;16.25;;;9.63;;
77876;SDS011;67251;50.844;7.978;2023-08-12T03:59:45;19.65;;;9.70;;
77876;SDS011;67251;50.844;7.978;2023-08-12T04:02:10;18.17;;;9.68;;
77876;SDS011;67251;50.844;7.978;2023-08-12T04:04:35;18.05;;;10.18;;
77876;SDS011;67251;50.844;7.978;2023-08-12T04:07:01;16.02;;;9.18;;
77876;SDS011;67251;50.844;7.978;2023-08-12T04:09:26;17.23;;;10.32;;
77876;SDS011;67251;50.844;7.978;2023-08-12T04:11:51;21.88;;;10.98;;
77876;SDS011;67251;50.844;7.978;2023-08-12T04:14:17;20.58;;;10.85;;
77876;SDS011;67251;50.844;7.978;2023-08-12T04:16:42;19.77;;;10.13;;
77876;SDS011;67251;50.844;7.978;2023-08-12T04:19:08;18.88;;;9.57;;
77876;SDS011;67251;50.844;7.978;2023-08-12T04:21:33;18.98;;;10.93;;
77876;SDS011;67251;50.844;7.978;2023-08-12T04:23:58;20.98;;;10.80;;
77876;SDS011;67251;50.844;7.978;2023-08-12T04:26:24;21.88;;;10.82;;
77876;SDS011;67251;50.844;7.978;2023-08-12T04:28:49;19.27;;;10.82;;
77876;SDS011;67251;50.844;7.978;2023-08-12T04:31:14;20.17;;;11.27;;
77876;SDS011;67251;50.844;7.978;2023-08-12T04:33:40;21.67;;;10.90;;
77876;SDS011;67251;50.844;7.978;2023-08-12T04:36:05;17.98;;;11.48;;
77876;SDS011;67251;50.844;7.978;2023-08-12T04:38:31;19.58;;;10.82;;
77876;SDS011;67251;50.844;7.978;2023-08-12T04:40:57;20.38;;;10.73;;
77876;SDS011;67251;50.844;7.978;2023-08-12T04:43:22;17.73;;;10.57;;
77876;SDS011;67251;50.844;7.978;2023-08-12T04:45:47;20.80;;;10.27;;
77876;SDS011;67251;50.844;7.978;2023-08-12T04:48:13;17.60;;;10.20;;
77876;SDS011;67251;50.844;7.978;2023-08-12T04:50:39;19.88;;;10.38;;
77876;SDS011;67251;50.844;7.978;2023-08-12T04:53:05;18.05;;;10.27;;
77876;SDS011;67251;50.844;7.978;2023-08-12T04:55:30;19.80;;;10.93;;
77876;SDS011;67251;50.844;7.978;2023-08-12T04:57:57;19.50;;;10.70;;
77876;SDS011;67251;50.844;7.978;2023-08-12T05:00:22;20.75;;;10.90;;
77876;SDS011;67251;50.844;7.978;2023-08-12T05:02:48;20.10;;;10.70;;
77876;SDS011;67251;50.844;7.978;2023-08-12T05:05:14;17.55;;;11.02;;
77876;SDS011;67251;50.844;7.978;2023-08-12T05:07:39;18.17;;;10.35;;
77876;SDS011;67251;50.844;7.978;2023-08-12T05:10:05;17.67;;;10.25;;
77876;SDS011;67251;50.844;7.978;2023-08-12T05:12:31;17.25;;;9.90;;
77876;SDS011;67251;50.844;7.978;2023-08-12T05:14:56;18.00;;;10.20;;
77876;SDS011;67251;50.844;7.978;2023-08-12T05:17:21;18.58;;;10.73;;
77876;SDS011;67251;50.844;7.978;2023-08-12T05:19:47;17.38;;;10.15;;
77876;SDS011;67251;50.844;7.978;2023-08-12T05:22:12;16.55;;;9.63;;
77876;SDS011;67251;50.844;7.978;2023-08-12T05:24:38;16.63;;;10.00;;
77876;SDS011;67251;50.844;7.978;2023-08-12T05:27:03;19.80;;;10.23;;
77876;SDS011;67251;50.844;7.978;2023-08-12T05:29:29;17.08;;;10.18;;
77876;SDS011;67251;50.844;7.978;2023-08-12T05:31:55;16.67;;;10.60;;
77876;SDS011;67251;50.844;7.978;2023-08-12T05:34:21;17.63;;;10.18;;
77876;SDS011;67251;50.844;7.978;2023-08-12T05:36:46;18.23;;;10.07;;
77876;SDS011;67251;50.844;7.978;2023-08-12T05:39:11;19.00;;;10.90;;
77876;SDS011;67251;50.844;7.978;2023-08-12T05:41:37;16.20;;;10.25;;
77876;SDS011;67251;50.844;7.978;2023-08-12T05:44:03;15.68;;;10.57;;
77876;SDS011;67251;50.844;7.978;2023-08-12T05:46:29;16.60;;;9.45;;
77876;SDS011;67251;50.844;7.978;2023-08-12T05:48:54;15.15;;;9.65;;
77876;SDS011;67251;50.844;7.978;2023-08-12T05:51:20;17.48;;;9.85;;
77876;SDS011;67251;50.844;7.978;2023-08-12T05:53:45;17.48;;;10.15;;
77876;SDS011;67251;50.844;7.978;2023-08-12T05:56:10;15.43;;;10.50;;
77876;SDS011;67251;50.844;7.978;2023-08-12T05:58:36;16.15;;;10.10;;
77876;SDS011;67251;50.844;7.978;2023-08-12T06:01:01;17.40;;;10.10;;
77876;SDS011;67251;50.844;7.978;2023-08-12T06:03:27;16.35;;;9.43;;
77876;SDS011;67251;50.844;7.978;2023-08-12T06:05:52;16.13;;;8.95;;
77876;SDS011;67251;50.844;7.978;2023-08-12T06:08:18;15.30;;;9.35;;
77876;SDS011;67251;50.844;7.978;2023-08-12T06:10:43;14.05;;;8.93;;
77876;SDS011;67251;50.844;7.978;2023-08-12T06:13:09;14.98;;;8.93;;
77876;SDS011;67251;50.844;7.978;2023-08-12T06:15:34;14.35;;;8.13;;
77876;SDS011;67251;50.844;7.978;2023-08-12T06:18:00;12.77;;;8.13;;
77876;SDS011;67251;50.844;7.978;2023-08-12T06:20:26;13.40;;;8.35;;
77876;SDS011;67251;50.844;7.978;2023-08-12T06:22:52;13.35;;;8.48;;
77876;SDS011;67251;50.844;7.978;2023-08-12T06:25:18;13.25;;;8.27;;
77876;SDS011;67251;50.844;7.978;2023-08-12T06:27:44;14.02;;;8.05;;
77876;SDS011;67251;50.844;7.978;2023-08-12T06:30:10;12.52;;;7.80;;
77876;SDS011;67251;50.844;7.978;2023-08-12T06:32:37;11.10;;;6.63;;
77876;SDS011;67251;50.844;7.978;2023-08-12T06:35:02;10.35;;;7.03;;
77876;SDS011;67251;50.844;7.978;2023-08-12T06:37:28;10.43;;;6.63;;
77876;SDS011;67251;50.844;7.978;2023-08-12T06:39:53;10.10;;;6.97;;
77876;SDS011;67251;50.844;7.978;2023-08-12T06:42:20;11.57;;;7.13;;
77876;SDS011;67251;50.844;7.978;2023-08-12T06:44:45;11.07;;;7.05;;
77876;SDS011;67251;50.844;7.978;2023-08-12T06:47:11;9.88;;;7.10;;
77876;SDS011;67251;50.844;7.978;2023-08-12T06:49:36;10.63;;;5.80;;
77876;SDS011;67251;50.844;7.978;2023-08-12T06:52:02;10.75;;;6.75;;
77876;SDS011;67251;50.844;7.978;2023-08-12T06:54:27;10.38;;;6.55;;
77876;SDS011;67251;50.844;7.978;2023-08-12T06:56:52;9.68;;;6.10;;
77876;SDS011;67251;50.844;7.978;2023-08-12T06:59:18;10.52;;;6.38;;
77876;SDS011;67251;50.844;7.978;2023-08-12T07:01:43;12.05;;;6.95;;
77876;SDS011;67251;50.844;7.978;2023-08-12T07:04:09;10.23;;;6.97;;
77876;SDS011;67251;50.844;7.978;2023-08-12T07:06:34;10.30;;;6.78;;
77876;SDS011;67251;50.844;7.978;2023-08-12T07:09:00;10.85;;;6.57;;
77876;SDS011;67251;50.844;7.978;2023-08-12T07:11:25;9.90;;;6.47;;
77876;SDS011;67251;50.844;7.978;2023-08-12T07:13:50;12.35;;;6.78;;
77876;SDS011;67251;50.844;7.978;2023-08-12T07:16:16;10.25;;;7.05;;
77876;SDS011;67251;50.844;7.978;2023-08-12T07:18:41;11.52;;;6.63;;
77876;SDS011;67251;50.844;7.978;2023-08-12T07:21:07;10.40;;;6.85;;
77876;SDS011;67251;50.844;7.978;2023-08-12T07:23:32;10.55;;;6.93;;
77876;SDS011;67251;50.844;7.978;2023-08-12T07:25:57;10.68;;;6.97;;
77876;SDS011;67251;50.844;7.978;2023-08-12T07:28:23;12.48;;;7.68;;
77876;SDS011;67251;50.844;7.978;2023-08-12T07:30:48;13.38;;;8.48;;
77876;SDS011;67251;50.844;7.978;2023-08-12T07:33:15;13.25;;;7.75;;
77876;SDS011;67251;50.844;7.978;2023-08-12T07:35:40;11.48;;;7.28;;
77876;SDS011;67251;50.844;7.978;2023-08-12T07:38:06;11.27;;;7.57;;
77876;SDS011;67251;50.844;7.978;2023-08-12T07:40:31;10.10;;;6.88;;
77876;SDS011;67251;50.844;7.978;2023-08-12T07:42:57;10.75;;;6.70;;
77876;SDS011;67251;50.844;7.978;2023-08-12T07:45:22;11.65;;;7.18;;
77876;SDS011;67251;50.844;7.978;2023-08-12T07:47:48;8.80;;;5.60;;
77876;SDS011;67251;50.844;7.978;2023-08-12T07:50:14;9.98;;;5.57;;
77876;SDS011;67251;50.844;7.978;2023-08-12T07:52:40;8.35;;;5.28;;
77876;SDS011;67251;50.844;7.978;2023-08-12T07:55:06;7.45;;;4.20;;
77876;SDS011;67251;50.844;7.978;2023-08-12T07:57:31;8.20;;;4.80;;
77876;SDS011;67251;50.844;7.978;2023-08-12T07:59:57;8.10;;;4.55;;
77876;SDS011;67251;50.844;7.978;2023-08-12T08:02:22;7.95;;;4.15;;
77876;SDS011;67251;50.844;7.978;2023-08-12T08:04:48;6.00;;;3.13;;
77876;SDS011;67251;50.844;7.978;2023-08-12T08:07:14;6.10;;;3.10;;
77876;SDS011;67251;50.844;7.978;2023-08-12T08:09:43;5.75;;;2.80;;
77876;SDS011;67251;50.844;7.978;2023-08-12T08:12:09;7.15;;;3.53;;
77876;SDS011;67251;50.844;7.978;2023-08-12T08:14:35;5.45;;;2.63;;
77876;SDS011;67251;50.844;7.978;2023-08-12T08:17:02;4.22;;;2.10;;
77876;SDS011;67251;50.844;7.978;2023-08-12T08:19:28;4.32;;;2.05;;
77876;SDS011;67251;50.844;7.978;2023-08-12T08:21:53;4.50;;;2.05;;
77876;SDS011;67251;50.844;7.978;2023-08-12T08:24:19;5.63;;;2.45;;
77876;SDS011;67251;50.844;7.978;2023-08-12T08:26:44;5.28;;;2.72;;
77876;SDS011;67251;50.844;7.978;2023-08-12T08:29:12;4.78;;;2.35;;
77876;SDS011;67251;50.844;7.978;2023-08-12T08:31:38;5.88;;;2.20;;
77876;SDS011;67251;50.844;7.978;2023-08-12T08:34:04;4.00;;;2.10;;
77876;SDS011;67251;50.844;7.978;2023-08-12T08:36:29;4.85;;;2.03;;
77876;SDS011;67251;50.844;7.978;2023-08-12T08:38:55;4.30;;;1.90;;
77876;SDS011;67251;50.844;7.978;2023-08-12T08:41:20;4.75;;;1.95;;
77876;SDS011;67251;50.844;7.978;2023-08-12T08:43:47;5.60;;;1.80;;
77876;SDS011;67251;50.844;7.978;2023-08-12T08:46:14;4.05;;;1.60;;
77876;SDS011;67251;50.844;7.978;2023-08-12T08:48:41;4.15;;;2.08;;
77876;SDS011;67251;50.844;7.978;2023-08-12T08:51:10;3.67;;;1.80;;
77876;SDS011;67251;50.844;7.978;2023-08-12T08:53:39;4.05;;;1.77;;
77876;SDS011;67251;50.844;7.978;2023-08-12T08:56:08;4.15;;;1.70;;
77876;SDS011;67251;50.844;7.978;2023-08-12T08:58:39;4.10;;;1.70;;
77876;SDS011;67251;50.844;7.978;2023-08-12T09:01:05;3.40;;;1.65;;
77876;SDS011;67251;50.844;7.978;2023-08-12T09:03:32;3.45;;;1.45;;
77876;SDS011;67251;50.844;7.978;2023-08-12T09:05:58;4.35;;;1.60;;
77876;SDS011;67251;50.844;7.978;2023-08-12T09:08:24;3.35;;;1.50;;
77876;SDS011;67251;50.844;7.978;2023-08-12T09:10:52;3.42;;;1.65;;
77876;SDS011;67251;50.844;7.978;2023-08-12T09:13:18;4.32;;;1.50;;
77876;SDS011;67251;50.844;7.978;2023-08-12T09:15:44;4.20;;;1.65;;
77876;SDS011;67251;50.844;7.978;2023-08-12T09:18:09;3.70;;;1.48;;
77876;SDS011;67251;50.844;7.978;2023-08-12T09:20:35;4.47;;;1.52;;
77876;SDS011;67251;50.844;7.978;2023-08-12T09:23:01;4.60;;;1.83;;
77876;SDS011;67251;50.844;7.978;2023-08-12T09:25:27;3.97;;;1.75;;
77876;SDS011;67251;50.844;7.978;2023-08-12T09:28:00;3.75;;;1.83;;
77876;SDS011;67251;50.844;7.978;2023-08-12T09:30:29;4.22;;;1.67;;
77876;SDS011;67251;50.844;7.978;2023-08-12T09:32:59;3.80;;;1.70;;
77876;SDS011;67251;50.844;7.978;2023-08-12T09:35:38;3.65;;;1.55;;
77876;SDS011;67251;50.844;7.978;2023-08-12T09:38:06;4.80;;;1.67;;
77876;SDS011;67251;50.844;7.978;2023-08-12T09:40:33;6.82;;;2.38;;
77876;SDS011;67251;50.844;7.978;2023-08-12T09:43:00;3.65;;;1.80;;
77876;SDS011;67251;50.844;7.978;2023-08-12T09:45:26;3.95;;;1.75;;
77876;SDS011;67251;50.844;7.978;2023-08-12T09:47:55;4.43;;;1.58;;
77876;SDS011;67251;50.844;7.978;2023-08-12T09:50:23;4.43;;;1.50;;
77876;SDS011;67251;50.844;7.978;2023-08-12T09:52:53;3.42;;;1.50;;
77876;SDS011;67251;50.844;7.978;2023-08-12T09:55:20;4.25;;;1.65;;
77876;SDS011;67251;50.844;7.978;2023-08-12T09:57:48;3.13;;;1.13;;
77876;SDS011;67251;50.844;7.978;2023-08-12T10:00:17;3.10;;;1.30;;
77876;SDS011;67251;50.844;7.978;2023-08-12T10:02:44;3.33;;;1.25;;
77876;SDS011;67251;50.844;7.978;2023-08-12T10:05:30;3.60;;;1.60;;
77876;SDS011;67251;50.844;7.978;2023-08-12T10:07:57;3.90;;;1.50;;
77876;SDS011;67251;50.844;7.978;2023-08-12T10:10:23;4.10;;;1.40;;
77876;SDS011;67251;50.844;7.978;2023-08-12T10:12:50;3.90;;;1.70;;
77876;SDS011;67251;50.844;7.978;2023-08-12T10:15:16;3.50;;;1.52;;
77876;SDS011;67251;50.844;7.978;2023-08-12T10:17:42;3.65;;;1.45;;
77876;SDS011;67251;50.844;7.978;2023-08-12T10:20:09;2.78;;;1.15;;
77876;SDS011;67251;50.844;7.978;2023-08-12T10:22:39;4.57;;;1.35;;
77876;SDS011;67251;50.844;7.978;2023-08-12T10:25:05;3.47;;;1.40;;
77876;SDS011;67251;50.844;7.978;2023-08-12T10:27:33;3.92;;;1.40;;
77876;SDS011;67251;50.844;7.978;2023-08-12T10:29:58;3.65;;;1.30;;
77876;SDS011;67251;50.844;7.978;2023-08-12T10:32:27;3.83;;;1.38;;
77876;SDS011;67251;50.844;7.978;2023-08-12T10:34:57;4.15;;;1.08;;
77876;SDS011;67251;50.844;7.978;2023-08-12T10:37:23;3.70;;;1.30;;
77876;SDS011;67251;50.844;7.978;2023-08-12T10:39:51;3.55;;;1.30;;
77876;SDS011;67251;50.844;7.978;2023-08-12T10:42:50;4.10;;;1.50;;
77876;SDS011;67251;50.844;7.978;2023-08-12T10:45:11;3.63;;;1.60;;
77876;SDS011;67251;50.844;7.978;2023-08-12T10:47:41;3.97;;;1.38;;
77876;SDS011;67251;50.844;7.978;2023-08-12T10:50:21;3.55;;;1.33;;
77876;SDS011;67251;50.844;7.978;2023-08-12T10:52:53;3.08;;;1.38;;
77876;SDS011;67251;50.844;7.978;2023-08-12T10:55:19;5.18;;;1.40;;
77876;SDS011;67251;50.844;7.978;2023-08-12T10:57:46;3.67;;;1.30;;
77876;SDS011;67251;50.844;7.978;2023-08-12T11:00:16;3.95;;;1.40;;
77876;SDS011;67251;50.844;7.978;2023-08-12T11:02:47;3.67;;;1.45;;
77876;SDS011;67251;50.844;7.978;2023-08-12T11:05:14;3.55;;;1.60;;
77876;SDS011;67251;50.844;7.978;2023-08-12T11:07:41;4.38;;;1.77;;
77876;SDS011;67251;50.844;7.978;2023-08-12T11:10:12;3.17;;;1.30;;
77876;SDS011;67251;50.844;7.978;2023-08-12T11:15:16;3.75;;;1.50;;
77876;SDS011;67251;50.844;7.978;2023-08-12T11:17:42;3.45;;;1.40;;
77876;SDS011;67251;50.844;7.978;2023-08-12T11:20:11;3.95;;;1.52;;
77876;SDS011;67251;50.844;7.978;2023-08-12T11:22:42;4.55;;;1.50;;
77876;SDS011;67251;50.844;7.978;2023-08-12T11:25:09;5.38;;;1.67;;
77876;SDS011;67251;50.844;7.978;2023-08-12T11:27:37;3.47;;;1.52;;
77876;SDS011;67251;50.844;7.978;2023-08-12T11:30:04;4.38;;;1.60;;
77876;SDS011;67251;50.844;7.978;2023-08-12T11:32:30;5.15;;;1.52;;
77876;SDS011;67251;50.844;7.978;2023-08-12T11:34:55;4.53;;;1.30;;
77876;SDS011;67251;50.844;7.978;2023-08-12T11:37:21;4.70;;;1.50;;
77876;SDS011;67251;50.844;7.978;2023-08-12T11:39:46;3.95;;;1.52;;
77876;SDS011;67251;50.844;7.978;2023-08-12T11:42:12;3.92;;;1.65;;
77876;SDS011;67251;50.844;7.978;2023-08-12T11:44:39;3.80;;;1.80;;
77876;SDS011;67251;50.844;7.978;2023-08-12T11:47:06;3.72;;;1.70;;
77876;SDS011;67251;50.844;7.978;2023-08-12T11:49:31;5.03;;;1.55;;
77876;SDS011;67251;50.844;7.978;2023-08-12T11:51:57;4.57;;;1.85;;
77876;SDS011;67251;50.844;7.978;2023-08-12T11:54:22;3.47;;;1.88;;
77876;SDS011;67251;50.844;7.978;2023-08-12T11:56:48;3.78;;;1.48;;
77876;SDS011;67251;50.844;7.978;2023-08-12T11:59:13;4.50;;;2.00;;
77876;SDS011;67251;50.844;7.978;2023-08-12T12:01:39;3.80;;;1.80;;
77876;SDS011;67251;50.844;7.978;2023-08-12T12:04:04;3.85;;;1.75;;
77876;SDS011;67251;50.844;7.978;2023-08-12T12:06:35;5.05;;;1.83;;
77876;SDS011;67251;50.844;7.978;2023-08-12T12:09:05;4.60;;;1.45;;
77876;SDS011;67251;50.844;7.978;2023-08-12T12:11:35;3.97;;;1.58;;
77876;SDS011;67251;50.844;7.978;2023-08-12T12:14:04;3.38;;;1.73;;
77876;SDS011;67251;50.844;7.978;2023-08-12T12:16:37;3.85;;;1.60;;
77876;SDS011;67251;50.844;7.978;2023-08-12T12:19:19;3.00;;;1.48;;
77876;SDS011;67251;50.844;7.978;2023-08-12T12:21:47;4.43;;;1.30;;
77876;SDS011;67251;50.844;7.978;2023-08-12T12:24:14;2.97;;;1.40;;
77876;SDS011;67251;50.844;7.978;2023-08-12T12:26:39;4.05;;;1.42;;
77876;SDS011;67251;50.844;7.978;2023-08-12T12:29:06;3.60;;;1.50;;
77876;SDS011;67251;50.844;7.978;2023-08-12T12:33:59;4.82;;;1.42;;
77876;SDS011;67251;50.844;7.978;2023-08-12T12:36:31;3.72;;;1.75;;
77876;SDS011;67251;50.844;7.978;2023-08-12T12:38:58;3.90;;;1.52;;
77876;SDS011;67251;50.844;7.978;2023-08-12T12:41:24;3.20;;;1.60;;
77876;SDS011;67251;50.844;7.978;2023-08-12T12:43:49;3.97;;;1.63;;
77876;SDS011;67251;50.844;7.978;2023-08-12T12:46:15;3.75;;;1.60;;
77876;SDS011;67251;50.844;7.978;2023-08-12T12:48:41;4.43;;;1.63;;
77876;SDS011;67251;50.844;7.978;2023-08-12T12:51:07;4.30;;;1.40;;
77876;SDS011;67251;50.844;7.978;2023-08-12T12:53:33;3.13;;;1.50;;
77876;SDS011;67251;50.844;7.978;2023-08-12T12:55:58;3.35;;;1.58;;
77876;SDS011;67251;50.844;7.978;2023-08-12T12:58:28;4.25;;;1.70;;
77876;SDS011;67251;50.844;7.978;2023-08-12T13:01:02;5.38;;;1.70;;
77876;SDS011;67251;50.844;7.978;2023-08-12T13:03:28;3.50;;;1.58;;
77876;SDS011;67251;50.844;7.978;2023-08-12T13:05:54;3.63;;;1.73;;
77876;SDS011;67251;50.844;7.978;2023-08-12T13:08:20;3.63;;;1.60;;
77876;SDS011;67251;50.844;7.978;2023-08-12T13:10:45;3.90;;;1.70;;
77876;SDS011;67251;50.844;7.978;2023-08-12T13:13:12;4.50;;;1.80;;
77876;SDS011;67251;50.844;7.978;2023-08-12T13:15:40;3.72;;;1.40;;
77876;SDS011;67251;50.844;7.978;2023-08-12T13:18:05;4.40;;;1.70;;
77876;SDS011;67251;50.844;7.978;2023-08-12T13:20:31;4.60;;;2.05;;
77876;SDS011;67251;50.844;7.978;2023-08-12T13:22:56;5.13;;;1.85;;
77876;SDS011;67251;50.844;7.978;2023-08-12T13:25:21;4.55;;;1.70;;
77876;SDS011;67251;50.844;7.978;2023-08-12T13:27:47;4.45;;;2.10;;
77876;SDS011;67251;50.844;7.978;2023-08-12T13:30:12;4.22;;;1.70;;
77876;SDS011;67251;50.844;7.978;2023-08-12T13:32:38;5.07;;;2.05;;
77876;SDS011;67251;50.844;7.978;2023-08-12T13:35:03;4.97;;;1.70;;
77876;SDS011;67251;50.844;7.978;2023-08-12T13:37:30;6.60;;;3.25;;
77876;SDS011;67251;50.844;7.978;2023-08-12T13:39:57;4.63;;;1.90;;
77876;SDS011;67251;50.844;7.978;2023-08-12T13:42:23;4.50;;;1.80;;
77876;SDS011;67251;50.844;7.978;2023-08-12T13:44:48;4.53;;;1.60;;
77876;SDS011;67251;50.844;7.978;2023-08-12T13:47:13;3.70;;;1.80;;
77876;SDS011;67251;50.844;7.978;2023-08-12T13:49:39;3.55;;;1.70;;
77876;SDS011;67251;50.844;7.978;2023-08-12T13:52:04;4.38;;;2.20;;
77876;SDS011;67251;50.844;7.978;2023-08-12T13:54:30;3.63;;;1.60;;
77876;SDS011;67251;50.844;7.978;2023-08-12T13:56:55;6.15;;;2.00;;
77876;SDS011;67251;50.844;7.978;2023-08-12T13:59:21;3.58;;;1.55;;
77876;SDS011;67251;50.844;7.978;2023-08-12T14:01:46;4.57;;;2.20;;
77876;SDS011;67251;50.844;7.978;2023-08-12T14:04:11;4.55;;;1.80;;
77876;SDS011;67251;50.844;7.978;2023-08-12T14:06:37;4.22;;;2.08;;
77876;SDS011;67251;50.844;7.978;2023-08-12T14:09:02;4.57;;;1.70;;
77876;SDS011;67251;50.844;7.978;2023-08-12T14:11:28;4.60;;;1.90;;
77876;SDS011;67251;50.844;7.978;2023-08-12T14:13:53;5.20;;;2.15;;
77876;SDS011;67251;50.844;7.978;2023-08-12T14:16:19;6.35;;;2.70;;
77876;SDS011;67251;50.844;7.978;2023-08-12T14:18:44;6.22;;;2.30;;
77876;SDS011;67251;50.844;7.978;2023-08-12T14:21:10;6.25;;;2.70;;
77876;SDS011;67251;50.844;7.978;2023-08-12T14:23:35;4.25;;;2.10;;
77876;SDS011;67251;50.844;7.978;2023-08-12T14:26:00;9.43;;;2.90;;
77876;SDS011;67251;50.844;7.978;2023-08-12T14:28:26;9.95;;;2.97;;
77876;SDS011;67251;50.844;7.978;2023-08-12T14:30:51;8.90;;;3.60;;
77876;SDS011;67251;50.844;7.978;2023-08-12T14:33:18;4.75;;;2.10;;
77876;SDS011;67251;50.844;7.978;2023-08-12T14:35:44;5.82;;;2.30;;
77876;SDS011;67251;50.844;7.978;2023-08-12T14:38:09;6.65;;;2.60;;
77876;SDS011;67251;50.844;7.978;2023-08-12T14:40:35;14.45;;;4.05;;
77876;SDS011;67251;50.844;7.978;2023-08-12T14:43:00;4.47;;;1.98;;